Create Custom Reports and Graphics: Custom Report

Latest Observations

MWA Stations

15 Minute Data | America/Los_Angeles
as of 9/3/26 3:05 PM PDT
Station Date Time Temp (°F) RH (%) Dew Pt (°F) Wind Dir (°) Wind Spd (mph) Wind Gust (mph) Solar Rad (W/m2) Pressure (mb) Daily Min Temp (°F) Daily Max Temp (°F) Daily Max Wind (mph) Daily Rain (In) Yest MinT (°F) Yest MaxT (°F) Yest MaxGst (mph) Yest Precip (In) MinBV Day (V)
MWA Office 9/3/26 1500 82.9   1.7 21   7 39.0   9.4 SW | 221 12.4   2.0 21.7   2.0 774   22 1,007.9   2.4 55.7   0.1 85.6   0.9 21.7   1.8 0.00 55.8 86.5 24.6 0.00 12.4   0.0
MWA OPS 9/3/26 1500 82.7   0.3 19   4 36.8   5.8 SW | 226 14.5   0.8 23.7   0.0 795   22 1,007.3   2.5 53.4   7.2 83.5   1.1 26.3   0.2 0.00 60.6 84.6 26.5 0.00 12.8   0.0
LV-PS 9/3/26 1500 87.6   4.3 18   10 38.5   16.0 NNE | 16 6.0   9.6 16.7   11.6 720   113 1,005.2   0.7 57.0   2.5 88.6   4.3 16.7   11.6 0.00 54.5 92.9 29.6 0.00 12.7   0.0
JV-PS 9/3/26 1500 87.5   4.0 13   4 29.9   6.4 NNE | 33 1.9   8.2 4.8   16.0 785   23 1,005.4   1.4 56.6   0.7 88.1   4.4 11.4   9.4 0.00 55.9 92.5 27.6 0.00 12.8   0.0
BDVWA 9/3/26 1500 85.6   0.1 18   5 36.7   8.4 S | 177 9.3   2.1 18.8   1.8 811   23 1,004.7   2.6 58.4   1.5 86.5   1.2 18.8   9.9 0.00 60.0 87.7 28.7 0.00 12.8   0.0
Newberry Springs 9/3/26 1500 91.3   0.8 18   6 41.3   10.2 ENE | 64 1.8   3.3 5.3   11.8 808   27 1,005.6   2.5 66.9   3.8 91.8   1.7 19.5   2.6 0.00 63.2 95.2 26.5 0.00 12.9   0.0
Pinon Hills 9/3/26 1500 78.1   0.4 26   8 40.5   9.5 E | 90 5.2   2.3 11.0   4.8 788   22 1,005.6   2.8 52.6   4.1 79.5   1.0 18.0   5.9 0.00 56.7 80.7 28.3 0.00 12.8   0.0
Helendale 9/3/26 1500 90.8   0.6 20   9 44.2   15.8 SSW | 200 8.4   4.0 16.7   4.2 742   27 1,005.0   2.9 59.9   12.7 91.4   0.0 19.3   3.7 0.00 47.2 91.6 27.6 0.00 12.7   0.0
Lenwood 9/3/26 1500 91.5   0.8 13   6 34.1   14.5 SW | 234 9.6   1.2 18.0   0.2 814   28 1,004.9   3.0 63.0   11.3 92.2   0.2 22.6   1.8 0.00 51.8 92.2 24.3 0.00 12.8   0.0
Oak Hills 9/3/26 1500 74.9   1.1 28   3 39.3   1.7 S | 183 8.1   0.3 20.0   0.7 794   18 1,008.1   2.3 53.4   1.0 75.0   1.4 22.8   1.8 0.00 54.3 76.5 25.2 0.00 12.9   0.0
Pipes Wash Canyon 9/3/26 1500 83.9   1.8 18   4 35.4   8.4 ESE | 102 5.6   1.6 13.8   0.9 789   22 1,003.6   3.1 55.1   2.1 83.9   0.2 17.1   2.8 0.00 57.2 84.1 20.0 0.00 12.8   0.0
Max     91.5 28 44.2 - 14.5 23.7 814 1,008.1 66.9 92.2 26.3 0.00 63.2 95.2 29.6 0.00 12.9
Avg     85.2 19 37.8 - 7.5 15.5 784 1,005.7 - - - - - - - - -
Min     74.9 13 29.9 - 1.8 4.8 720 1,003.6 52.6 75.0 11.4 0.00 47.2 76.5 20.0 0.00 12.4

Latest Observations

Map

15 Minute Data

Rainfall & ETo

MWA Stations

15 Minute Data | America/Los_Angeles
as of 9/3/26 3:05 PM PDT
Station Date Time Latest Rain (In) Daily Rain (In) Yest Precip (In) Month Precip (In) Season Precip (In) Daily ETo (in) Yest ETo (In) 7 Day ETo (in)
MWA Office 9/3/26 1500 0.00 0.00 0.00 0.00 0.00 0.138 0.29 1.89
MWA OPS 9/3/26 1500 0.00 0.00 0.00 0.00 0.00 0.156 0.31 2.05
LV-PS 9/3/26 1500 0.00 0.00 0.00 0.00 0.34 0.134 0.29 1.99
JV-PS 9/3/26 1500 0.00 0.00 0.00 0.00 0.06 0.135 0.29 1.98
BDVWA 9/3/26 1500 0.00 0.00 0.00 0.00 0.00 0.152 0.28 2.07
Newberry Springs 9/3/26 1500 0.00 0.00 0.00 0.00 1.97 0.166 0.33 2.33
Pinon Hills 9/3/26 1500 0.00 0.00 0.00 0.00 0.19 0.128 0.24 1.72
Helendale 9/3/26 1500 0.00 0.00 0.00 0.00 0.00 0.165 0.29 2.07
Lenwood 9/3/26 1500 0.00 0.00 0.00 0.00 0.09 0.164 0.30 2.11
Oak Hills 9/3/26 1500 0.00 0.00 0.00 0.00 0.00 0.135 0.25 1.73
Pipes Wash Canyon 9/3/26 1500 0.00 0.00 0.00 0.00 0.00 0.152 0.23 1.65
Max     0.00 0.00 0.00 0.00 1.97 0.166 0.33 2.33
Avg     0.00 - - - - - - -
Min     0.00 0.00 0.00 0.00 0.00 0.128 0.23 1.65